createdAt,value
2024-03-26T00:00:49.469Z,65.7923
2024-03-26T00:01:52.273Z,66.0821
2024-03-26T00:02:55.032Z,66.1250
2024-03-26T00:03:57.708Z,66.3065
2024-03-26T00:05:00.398Z,65.9688
2024-03-26T00:06:03.123Z,66.0152
2024-03-26T00:07:05.869Z,66.4682
2024-03-26T00:08:08.534Z,64.5018
2024-03-26T00:09:11.257Z,65.2010
2024-03-26T00:10:14.013Z,64.8561
2024-03-26T00:11:16.736Z,65.1647
2024-03-26T00:12:19.524Z,65.4491
2024-03-26T00:13:22.184Z,65.9247
2024-03-26T00:14:24.953Z,65.2753
2024-03-26T00:15:27.618Z,65.5388
2024-03-26T00:16:30.335Z,65.3105
2024-03-26T00:17:33.017Z,65.9946
2024-03-26T00:18:35.763Z,65.4953
2024-03-26T00:19:38.506Z,65.2411
2024-03-26T00:20:41.184Z,65.6741
2024-03-26T00:21:43.962Z,65.9045
2024-03-26T00:22:46.659Z,66.2506
2024-03-26T00:23:49.346Z,66.8410
2024-03-26T00:24:52.026Z,66.5882
2024-03-26T00:25:54.747Z,65.5298
2024-03-26T00:26:57.562Z,65.8212
2024-03-26T00:28:00.280Z,66.1648
2024-03-26T00:29:02.942Z,66.1435
2024-03-26T00:30:05.702Z,66.0118
2024-03-26T00:31:08.435Z,66.3125
2024-03-26T00:32:11.477Z,66.5528
2024-03-26T00:33:14.223Z,65.9063
2024-03-26T00:34:16.889Z,65.5971
2024-03-26T00:35:19.627Z,66.5287
2024-03-26T00:36:22.457Z,66.3372
2024-03-26T00:37:25.150Z,66.3159
2024-03-26T00:38:27.893Z,66.9566
2024-03-26T00:39:30.629Z,67.1218
2024-03-26T00:40:33.312Z,66.3581
2024-03-26T00:41:36.004Z,66.3934
2024-03-26T00:42:38.651Z,66.9673
2024-03-26T00:43:41.388Z,66.8476
2024-03-26T00:44:44.097Z,66.3952
2024-03-26T00:45:46.820Z,66.1241
2024-03-26T00:46:49.503Z,66.8901
2024-03-26T00:47:52.264Z,66.8398
2024-03-26T00:48:54.941Z,66.8746
2024-03-26T00:49:57.698Z,66.7764
2024-03-26T00:51:00.417Z,66.2370
2024-03-26T00:52:03.177Z,66.7024
2024-03-26T00:53:05.867Z,67.4298
2024-03-26T00:54:08.576Z,68.2004
2024-03-26T00:55:11.242Z,68.5630
2024-03-26T00:56:14.017Z,68.3704
2024-03-26T00:57:16.720Z,68.0123
2024-03-26T00:58:19.458Z,67.9597
2024-03-26T00:59:22.161Z,67.7575
2024-03-26T01:00:24.840Z,67.5512
2024-03-26T01:01:27.531Z,67.7454
2024-03-26T01:02:30.385Z,67.9455
2024-03-26T01:03:33.051Z,69.1497
2024-03-26T01:04:35.776Z,69.4491
2024-03-26T01:05:38.445Z,69.3672
2024-03-26T01:06:41.217Z,69.2646
2024-03-26T01:07:43.906Z,69.1169
2024-03-26T01:08:46.589Z,69.5315
2024-03-26T01:09:49.304Z,69.2843
2024-03-26T01:10:52.176Z,69.0058
2024-03-26T01:11:54.871Z,69.8148
2024-03-26T01:12:57.590Z,70.6344
2024-03-26T01:14:00.252Z,70.3571
2024-03-26T01:15:03.014Z,69.5340
2024-03-26T01:16:05.702Z,70.1422
2024-03-26T01:17:08.445Z,69.9347
2024-03-26T01:18:11.078Z,69.8059
2024-03-26T01:19:13.916Z,70.5336
2024-03-26T01:20:16.891Z,70.4328
2024-03-26T01:21:22.866Z,70.3288
2024-03-26T01:22:22.784Z,69.8829
2024-03-26T01:23:25.440Z,70.1229
2024-03-26T01:24:28.185Z,70.3222
2024-03-26T01:25:31.077Z,70.2257
2024-03-26T01:26:33.858Z,69.6251
2024-03-26T01:27:36.586Z,69.7323
2024-03-26T01:28:39.300Z,69.1997
2024-03-26T01:29:41.969Z,69.3579
2024-03-26T01:30:44.721Z,68.4920
2024-03-26T01:31:47.466Z,68.5633
2024-03-26T01:32:50.217Z,68.3876
2024-03-26T01:33:52.905Z,69.6015
2024-03-26T01:34:55.918Z,70.0274
2024-03-26T01:35:58.670Z,69.9139
2024-03-26T01:37:01.383Z,69.1583
2024-03-26T01:38:04.019Z,69.7747
2024-03-26T01:39:06.794Z,70.0274
2024-03-26T01:40:09.544Z,70.2658
2024-03-26T01:41:12.246Z,70.4668
2024-03-26T01:42:14.984Z,70.1534
2024-03-26T01:43:17.668Z,69.6782
2024-03-26T01:44:20.430Z,69.9357
2024-03-26T01:45:23.137Z,70.0632
2024-03-26T01:46:25.857Z,69.7808
2024-03-26T01:47:28.535Z,69.2562
2024-03-26T01:48:31.309Z,70.0788
2024-03-26T01:49:34.017Z,69.7904
2024-03-26T01:50:36.789Z,70.0633
2024-03-26T01:51:39.522Z,70.4756
2024-03-26T01:52:42.197Z,70.5696
2024-03-26T01:53:44.963Z,70.2034
2024-03-26T01:54:47.698Z,70.1605
2024-03-26T01:55:50.365Z,70.4011
2024-03-26T01:56:53.063Z,70.6984
2024-03-26T01:57:55.732Z,70.8599
2024-03-26T01:58:58.429Z,70.5041
2024-03-26T02:00:01.145Z,70.5210
2024-03-26T02:01:03.941Z,71.0912
2024-03-26T02:02:06.651Z,71.2973
2024-03-26T02:03:09.318Z,71.4985
2024-03-26T02:04:12.102Z,71.6961
2024-03-26T02:05:14.822Z,71.1493
2024-03-26T02:06:17.533Z,71.2088
2024-03-26T02:07:20.219Z,71.5455
2024-03-26T02:08:22.988Z,72.0739
2024-03-26T02:09:25.699Z,72.0256
2024-03-26T02:10:28.410Z,71.4058
2024-03-26T02:11:31.143Z,71.7516
2024-03-26T02:12:33.873Z,72.8754
2024-03-26T02:13:36.607Z,71.5919
2024-03-26T02:14:39.346Z,71.3036
2024-03-26T02:15:42.078Z,70.9629
2024-03-26T02:16:44.802Z,71.2615
2024-03-26T02:17:47.566Z,71.3078
2024-03-26T02:18:50.224Z,70.8002
2024-03-26T02:19:52.960Z,70.6482
2024-03-26T02:20:55.732Z,70.3671
2024-03-26T02:21:58.478Z,70.5047
2024-03-26T02:23:01.188Z,70.6014
2024-03-26T02:24:04.134Z,71.3828
2024-03-26T02:25:06.820Z,70.6807
2024-03-26T02:26:09.558Z,70.4068
2024-03-26T02:27:12.255Z,70.4547
2024-03-26T02:28:14.970Z,70.6518
2024-03-26T02:29:17.742Z,70.4625
2024-03-26T02:30:20.427Z,70.4157
2024-03-26T02:31:23.138Z,70.3465
2024-03-26T02:32:25.962Z,71.0139
2024-03-26T02:33:28.655Z,70.5278
2024-03-26T02:34:31.405Z,70.4935
2024-03-26T02:35:34.131Z,69.8158
2024-03-26T02:36:36.854Z,69.3044
2024-03-26T02:37:39.581Z,69.7182
2024-03-26T02:38:42.358Z,69.7374
2024-03-26T02:39:45.160Z,68.9632
2024-03-26T02:40:47.939Z,68.7843
2024-03-26T02:41:50.717Z,68.6185
2024-03-26T02:42:53.448Z,69.0880
2024-03-26T02:43:56.228Z,69.3897
2024-03-26T02:44:58.963Z,69.0517
2024-03-26T02:46:01.852Z,69.0517
2024-03-26T02:47:04.586Z,69.0536
2024-03-26T02:48:07.324Z,69.4715
2024-03-26T02:49:10.011Z,69.3956
2024-03-26T02:50:12.742Z,70.1709
2024-03-26T02:51:15.458Z,70.0066
2024-03-26T02:52:18.173Z,69.5515
2024-03-26T02:53:20.958Z,69.7516
2024-03-26T02:54:23.675Z,69.6604
2024-03-26T02:55:26.569Z,69.9495
2024-03-26T02:56:29.372Z,68.5000
2024-03-26T02:57:32.113Z,68.5535
2024-03-26T02:58:34.850Z,69.7515
2024-03-26T02:59:37.668Z,70.5978
2024-03-26T03:00:40.556Z,69.9413
2024-03-26T03:01:43.297Z,70.3837
2024-03-26T03:02:47.255Z,69.6047
2024-03-26T03:03:47.137Z,69.5037
2024-03-26T03:04:49.977Z,69.3730
2024-03-26T03:05:52.719Z,69.4304
2024-03-26T03:06:55.425Z,68.7476
2024-03-26T03:07:58.154Z,68.2599
2024-03-26T03:09:00.937Z,68.2853
2024-03-26T03:10:03.751Z,67.8907
2024-03-26T03:11:06.482Z,67.9870
2024-03-26T03:12:09.217Z,68.5706
2024-03-26T03:13:11.996Z,68.6956
2024-03-26T03:14:14.777Z,68.5178
2024-03-26T03:15:17.515Z,68.7101
2024-03-26T03:16:20.244Z,68.8183
2024-03-26T03:17:23.041Z,68.9957
2024-03-26T03:18:25.854Z,68.8958
2024-03-26T03:19:28.578Z,69.1007
2024-03-26T03:20:31.321Z,69.1207
2024-03-26T03:21:34.068Z,69.5455
2024-03-26T03:22:36.840Z,69.8495
2024-03-26T03:23:39.773Z,69.6105
2024-03-26T03:24:42.497Z,69.4535
2024-03-26T03:25:45.262Z,69.9391
2024-03-26T03:26:48.011Z,69.8183
2024-03-26T03:27:50.724Z,70.1893
2024-03-26T03:28:53.437Z,70.3542
2024-03-26T03:29:56.177Z,70.6223
2024-03-26T03:30:58.968Z,70.7827
2024-03-26T03:32:01.696Z,70.7611
2024-03-26T03:33:04.580Z,71.1737
2024-03-26T03:34:07.285Z,71.2721
2024-03-26T03:35:10.040Z,71.4294
2024-03-26T03:36:12.722Z,71.0238
2024-03-26T03:37:15.464Z,70.6079
2024-03-26T03:38:18.165Z,70.5986
2024-03-26T03:39:20.899Z,70.1300
2024-03-26T03:40:23.603Z,69.8857
2024-03-26T03:41:26.340Z,69.6638
2024-03-26T03:42:29.045Z,69.7041
2024-03-26T03:43:31.778Z,70.2545
2024-03-26T03:44:34.495Z,69.9515
2024-03-26T03:45:37.479Z,70.1162
2024-03-26T03:46:40.245Z,70.6221
2024-03-26T03:47:42.988Z,71.0363
2024-03-26T03:48:45.680Z,70.3043
2024-03-26T03:49:48.393Z,69.8492
2024-03-26T03:50:51.242Z,69.4286
2024-03-26T03:51:53.962Z,69.7683
2024-03-26T03:52:56.692Z,69.9105
2024-03-26T03:53:59.420Z,69.6208
2024-03-26T03:55:02.338Z,69.4345
2024-03-26T03:56:05.057Z,70.1664
2024-03-26T03:57:07.785Z,70.7649
2024-03-26T03:58:10.831Z,71.0185
2024-03-26T03:59:13.531Z,71.1938
2024-03-26T04:00:16.272Z,71.5600
2024-03-26T04:01:18.968Z,71.9316
2024-03-26T04:02:21.693Z,70.8350
2024-03-26T04:03:24.460Z,70.8394
2024-03-26T04:04:27.228Z,70.1728
2024-03-26T04:05:29.955Z,70.6093
2024-03-26T04:06:32.731Z,69.8424
2024-03-26T04:07:35.620Z,70.5924
2024-03-26T04:08:38.336Z,70.1385
2024-03-26T04:09:41.048Z,70.3901
2024-03-26T04:10:43.767Z,70.7306
2024-03-26T04:11:46.485Z,71.2804
2024-03-26T04:12:49.299Z,71.8667
2024-03-26T04:13:52.014Z,71.7384
2024-03-26T04:14:54.749Z,71.7895
2024-03-26T04:15:57.696Z,71.1590
2024-03-26T04:17:00.426Z,71.1124
2024-03-26T04:18:03.207Z,70.6329
2024-03-26T04:19:05.977Z,70.9056
2024-03-26T04:20:08.717Z,70.7849
2024-03-26T04:21:11.402Z,70.7169
2024-03-26T04:22:14.140Z,71.1404
2024-03-26T04:23:16.912Z,70.9551
2024-03-26T04:24:19.776Z,71.2317
2024-03-26T04:25:22.593Z,71.5201
2024-03-26T04:26:25.322Z,71.3718
2024-03-26T04:27:28.060Z,71.7511
2024-03-26T04:28:30.808Z,72.3035
2024-03-26T04:29:33.548Z,72.7249
2024-03-26T04:30:36.395Z,72.9291
2024-03-26T04:31:39.142Z,72.7915
2024-03-26T04:32:41.860Z,72.6178
2024-03-26T04:33:44.591Z,72.7882
2024-03-26T04:34:47.271Z,72.9136
2024-03-26T04:35:50.038Z,72.6834
2024-03-26T04:36:52.723Z,72.4810
2024-03-26T04:37:55.457Z,72.2897
2024-03-26T04:38:58.484Z,72.9796
2024-03-26T04:40:01.253Z,73.0663
2024-03-26T04:41:04.007Z,73.1118
2024-03-26T04:42:06.748Z,73.1991
2024-03-26T04:43:09.455Z,73.2463
2024-03-26T04:44:12.207Z,73.3533
2024-03-26T04:45:14.944Z,73.7767
2024-03-26T04:46:17.667Z,73.6792
2024-03-26T04:47:20.605Z,73.7508
2024-03-26T04:48:23.379Z,73.8075
2024-03-26T04:49:26.086Z,73.5440
2024-03-26T04:50:28.887Z,73.2743
2024-03-26T04:51:31.774Z,73.7711
2024-03-26T04:52:34.520Z,73.7336
2024-03-26T04:53:37.342Z,73.9387
2024-03-26T04:54:40.251Z,73.9768
2024-03-26T04:55:42.964Z,74.4628
2024-03-26T04:56:45.684Z,74.6980
2024-03-26T04:57:48.412Z,74.7400
2024-03-26T04:58:51.151Z,75.2106
2024-03-26T04:59:53.860Z,75.7135
2024-03-26T05:00:56.577Z,75.4105
2024-03-26T05:01:59.376Z,74.3387
2024-03-26T05:03:02.135Z,74.2974
2024-03-26T05:04:04.876Z,74.8967
2024-03-26T05:05:07.618Z,75.1801
2024-03-26T05:06:10.430Z,75.3966
2024-03-26T05:07:13.154Z,74.7428
2024-03-26T05:08:15.946Z,75.0996
2024-03-26T05:09:18.649Z,74.8944
2024-03-26T05:10:21.397Z,75.3230
2024-03-26T05:11:24.154Z,75.5016
2024-03-26T05:12:27.220Z,74.9482
2024-03-26T05:13:29.925Z,74.8279
2024-03-26T05:14:32.890Z,74.1790
2024-03-26T05:15:35.612Z,74.1983
2024-03-26T05:16:38.379Z,74.1082
2024-03-26T05:17:41.118Z,73.7636
2024-03-26T05:18:43.852Z,74.3192
2024-03-26T05:19:46.584Z,74.4341
2024-03-26T05:20:49.348Z,73.5114
2024-03-26T05:21:52.196Z,74.0984
2024-03-26T05:22:55.009Z,74.3087
2024-03-26T05:23:57.755Z,74.4656
2024-03-26T05:25:00.503Z,74.4876
2024-03-26T05:26:03.456Z,74.1941
2024-03-26T05:27:06.239Z,74.2225
2024-03-26T05:28:08.967Z,74.3576
2024-03-26T05:29:11.776Z,75.1336
2024-03-26T05:30:14.478Z,74.4964
2024-03-26T05:31:17.159Z,74.2326
2024-03-26T05:32:19.845Z,74.5562
2024-03-26T05:33:22.556Z,74.5201
2024-03-26T05:34:25.344Z,74.2134
2024-03-26T05:35:28.271Z,74.5961
2024-03-26T05:36:30.971Z,74.5476
2024-03-26T05:37:33.669Z,75.0481
2024-03-26T05:38:36.442Z,74.8636
2024-03-26T05:39:39.085Z,74.8144
2024-03-26T05:40:41.860Z,74.6494
2024-03-26T05:41:44.536Z,74.8007
2024-03-26T05:42:47.291Z,75.1377
2024-03-26T05:43:50.028Z,75.4618
2024-03-26T05:44:52.793Z,75.3874
2024-03-26T05:45:55.436Z,75.6704
2024-03-26T05:46:58.177Z,76.0159
2024-03-26T05:48:00.900Z,75.4915
2024-03-26T05:49:03.622Z,75.1775
2024-03-26T05:50:06.303Z,74.7337
2024-03-26T05:51:09.037Z,74.6783
2024-03-26T05:52:11.778Z,74.6896
2024-03-26T05:53:14.500Z,74.7387
2024-03-26T05:54:17.186Z,74.2585
2024-03-26T05:55:19.937Z,74.1995
2024-03-26T05:56:22.993Z,73.2383
2024-03-26T05:57:25.694Z,73.6923
2024-03-26T05:58:28.422Z,73.2830
2024-03-26T05:59:31.124Z,73.6064
2024-03-26T06:00:33.891Z,73.8746
2024-03-26T06:01:36.587Z,74.1969
2024-03-26T06:02:39.359Z,73.8747
2024-03-26T06:03:42.054Z,73.7343
2024-03-26T06:04:44.739Z,73.3672
2024-03-26T06:05:47.570Z,73.4632
2024-03-26T06:06:50.254Z,73.4609
2024-03-26T06:07:52.916Z,73.1820
2024-03-26T06:08:55.690Z,73.1854
2024-03-26T06:09:58.347Z,72.8948
2024-03-26T06:11:01.058Z,72.9273
2024-03-26T06:12:03.741Z,72.8791
2024-03-26T06:13:07.785Z,73.0613
2024-03-26T06:14:07.084Z,72.8070
2024-03-26T06:15:09.786Z,73.1335
2024-03-26T06:16:12.474Z,73.5147
2024-03-26T06:17:15.146Z,72.9680
2024-03-26T06:18:17.809Z,72.6860
2024-03-26T06:19:20.585Z,72.3099
2024-03-26T06:20:23.250Z,71.9225
2024-03-26T06:21:25.997Z,71.9682
2024-03-26T06:22:28.762Z,71.7982
2024-03-26T06:23:31.528Z,71.7898
2024-03-26T06:24:34.173Z,71.2309
2024-03-26T06:25:36.869Z,71.2271
2024-03-26T06:26:39.613Z,71.2240
2024-03-26T06:27:42.288Z,71.5635
2024-03-26T06:28:45.056Z,71.2339
2024-03-26T06:29:47.782Z,70.4735
2024-03-26T06:30:50.491Z,70.6308
2024-03-26T06:31:53.234Z,71.1202
2024-03-26T06:32:55.987Z,70.6277
2024-03-26T06:33:58.678Z,70.8951
2024-03-26T06:35:01.373Z,70.8277
2024-03-26T06:36:04.100Z,70.7171
2024-03-26T06:37:06.805Z,70.4019
2024-03-26T06:38:09.880Z,69.9760
2024-03-26T06:39:12.625Z,70.8604
2024-03-26T06:40:15.319Z,70.8228
2024-03-26T06:41:17.996Z,70.2057
2024-03-26T06:42:20.746Z,69.6355
2024-03-26T06:43:23.459Z,69.9729
2024-03-26T06:44:26.231Z,70.4413
2024-03-26T06:45:29.223Z,70.3612
2024-03-26T06:46:31.918Z,69.4469
2024-03-26T06:47:34.650Z,69.5104
2024-03-26T06:48:37.387Z,69.3953
2024-03-26T06:49:40.147Z,69.2122
2024-03-26T06:50:42.836Z,69.1332
2024-03-26T06:51:46.135Z,68.7828
2024-03-26T06:52:48.926Z,68.2548
2024-03-26T06:53:51.608Z,67.9898
2024-03-26T06:54:54.352Z,67.8268
2024-03-26T06:55:57.076Z,67.9354
2024-03-26T06:56:59.780Z,68.1111
2024-03-26T06:58:02.558Z,67.0768
2024-03-26T06:59:05.212Z,67.2138
2024-03-26T07:00:07.922Z,67.9743
2024-03-26T07:01:10.591Z,66.7447
2024-03-26T07:02:13.390Z,66.5474
2024-03-26T07:03:16.142Z,66.8201
2024-03-26T07:04:18.817Z,66.7465
2024-03-26T07:05:21.536Z,67.0300
2024-03-26T07:06:24.256Z,66.4860
2024-03-26T07:07:26.993Z,66.9412
2024-03-26T07:08:29.687Z,66.9560
2024-03-26T07:09:32.362Z,66.4694
2024-03-26T07:10:35.134Z,66.5448
2024-03-26T07:11:37.868Z,66.9435
2024-03-26T07:12:40.557Z,66.8187
2024-03-26T07:13:43.232Z,67.1046
2024-03-26T07:14:46.036Z,67.6045
2024-03-26T07:15:48.820Z,67.0346
2024-03-26T07:16:51.478Z,66.6656
2024-03-26T07:17:54.209Z,67.4197
2024-03-26T07:18:56.873Z,67.7603
2024-03-26T07:19:59.631Z,67.2813
2024-03-26T07:21:02.340Z,67.3511
2024-03-26T07:22:05.115Z,67.4035
2024-03-26T07:23:07.754Z,68.0690
2024-03-26T07:24:10.503Z,68.5389
2024-03-26T07:25:13.241Z,68.4724
2024-03-26T07:26:15.960Z,68.4799
2024-03-26T07:27:18.663Z,68.4805
2024-03-26T07:28:21.374Z,68.6225
2024-03-26T07:29:24.099Z,68.3347
2024-03-26T07:30:26.844Z,68.0802
2024-03-26T07:31:29.511Z,67.7338
2024-03-26T07:32:32.223Z,67.6284
2024-03-26T07:33:34.985Z,67.6557
2024-03-26T07:34:37.723Z,66.9200
2024-03-26T07:35:40.443Z,66.6674
2024-03-26T07:36:43.162Z,66.3697
2024-03-26T07:37:45.859Z,66.2956
2024-03-26T07:38:48.591Z,66.2231
2024-03-26T07:39:51.277Z,66.1159
2024-03-26T07:40:53.998Z,65.7231
2024-03-26T07:41:56.743Z,65.2841
2024-03-26T07:43:01.417Z,64.7109
2024-03-26T07:43:59.419Z,64.6204
2024-03-26T07:45:02.536Z,64.9492
2024-03-26T07:46:05.208Z,64.4394
2024-03-26T07:47:08.098Z,63.2195
2024-03-26T07:48:10.857Z,63.6221
2024-03-26T07:49:13.561Z,64.1757
2024-03-26T07:50:16.302Z,63.3146
2024-03-26T07:51:19.646Z,63.2233
2024-03-26T07:52:19.545Z,63.0195
2024-03-26T07:53:22.333Z,61.9940
2024-03-26T07:54:24.947Z,63.6006
2024-03-26T07:55:27.688Z,63.0599
2024-03-26T07:56:30.389Z,63.3242
2024-03-26T07:57:33.115Z,63.1954
2024-03-26T07:58:35.786Z,63.1535
2024-03-26T07:59:38.533Z,62.6741
2024-03-26T08:00:41.323Z,61.8708
2024-03-26T08:01:44.263Z,60.5898
2024-03-26T08:02:46.948Z,60.5350
2024-03-26T08:03:49.712Z,61.3593
2024-03-26T08:04:52.414Z,61.9276
2024-03-26T08:05:55.220Z,60.4827
2024-03-26T08:06:57.941Z,59.5600
2024-03-26T08:08:00.878Z,59.2301
2024-03-26T08:09:03.612Z,59.5263
2024-03-26T08:10:06.399Z,58.7580
2024-03-26T08:11:09.381Z,59.1691
2024-03-26T08:12:12.050Z,60.7654
2024-03-26T08:13:14.823Z,60.4371
2024-03-26T08:14:17.581Z,59.7852
2024-03-26T08:15:20.303Z,59.5859
2024-03-26T08:16:23.032Z,60.0968
2024-03-26T08:17:25.735Z,60.8475
2024-03-26T08:18:28.493Z,59.8260
2024-03-26T08:19:31.630Z,58.6613
2024-03-26T08:20:31.383Z,60.0816
2024-03-26T08:21:34.079Z,58.7844
2024-03-26T08:22:36.761Z,58.2157
2024-03-26T08:23:39.480Z,58.0521
2024-03-26T08:24:42.240Z,58.3211
2024-03-26T08:25:44.940Z,56.9943
2024-03-26T08:26:47.636Z,57.2946
2024-03-26T08:27:50.341Z,56.7951
2024-03-26T08:28:53.069Z,56.7550
2024-03-26T08:29:55.777Z,56.3118
2024-03-26T08:30:58.519Z,56.8132
2024-03-26T08:32:01.218Z,57.7401
2024-03-26T08:33:04.408Z,56.5001
2024-03-26T08:34:07.142Z,55.8568
2024-03-26T08:35:09.859Z,56.5632
2024-03-26T08:36:13.017Z,56.6423
2024-03-26T08:37:12.670Z,55.0975
2024-03-26T08:38:15.355Z,53.7074
2024-03-26T08:39:18.055Z,53.7487
2024-03-26T08:40:20.941Z,53.6798
2024-03-26T08:41:23.793Z,52.9849
2024-03-26T08:42:26.519Z,53.8457
2024-03-26T08:43:29.285Z,54.8700
2024-03-26T08:44:32.351Z,56.2242
2024-03-26T08:45:35.019Z,55.5450
2024-03-26T08:46:37.706Z,54.9548
2024-03-26T08:47:40.428Z,54.7902
2024-03-26T08:48:43.152Z,54.4210
2024-03-26T08:49:45.860Z,55.2541
2024-03-26T08:50:48.606Z,55.1511
2024-03-26T08:51:52.202Z,55.2298
2024-03-26T08:52:51.571Z,56.2303
2024-03-26T08:53:54.279Z,56.3071
2024-03-26T08:54:56.979Z,56.1604
2024-03-26T08:56:08.565Z,55.5328
2024-03-26T08:57:01.407Z,55.7686
2024-03-26T08:58:04.058Z,55.3952
2024-03-26T08:59:06.806Z,55.1681
2024-03-26T09:00:09.557Z,54.7211
2024-03-26T09:01:12.279Z,55.4015
2024-03-26T09:02:14.992Z,55.0592
2024-03-26T09:03:17.772Z,54.2663
2024-03-26T09:04:21.934Z,54.8564
2024-03-26T09:05:22.608Z,55.0389
2024-03-26T09:06:25.299Z,55.0579
2024-03-26T09:07:28.206Z,55.0606
2024-03-26T09:08:31.000Z,55.1359
2024-03-26T09:09:33.696Z,54.4882
2024-03-26T09:10:36.431Z,54.4175
2024-03-26T09:11:39.146Z,53.6992
2024-03-26T09:12:41.865Z,52.8338
2024-03-26T09:13:45.019Z,53.6681
2024-03-26T09:14:47.692Z,53.7117
2024-03-26T09:15:50.482Z,53.5009
2024-03-26T09:16:53.192Z,54.3009
2024-03-26T09:17:55.922Z,52.9750
2024-03-26T09:19:01.701Z,53.8613
2024-03-26T09:20:01.641Z,52.7698
2024-03-26T09:21:04.366Z,53.7267
2024-03-26T09:22:07.316Z,51.7794
2024-03-26T09:23:10.026Z,50.8916
2024-03-26T09:24:12.719Z,49.9490
2024-03-26T09:25:15.460Z,49.5588
2024-03-26T09:26:18.195Z,49.8937
2024-03-26T09:27:20.922Z,50.1934
2024-03-26T09:28:23.692Z,50.2642
2024-03-26T09:29:26.365Z,48.4522
2024-03-26T09:30:29.377Z,48.1071
2024-03-26T09:31:32.141Z,46.8522
2024-03-26T09:32:34.830Z,48.6181
2024-03-26T09:33:37.597Z,49.8639
2024-03-26T09:34:40.332Z,51.1929
2024-03-26T09:35:43.308Z,50.0761
2024-03-26T09:36:46.158Z,49.1277
2024-03-26T09:37:49.941Z,49.5941
2024-03-26T09:38:51.048Z,49.1997
2024-03-26T09:39:51.748Z,49.7810
2024-03-26T09:40:54.555Z,49.2432
2024-03-26T09:41:57.439Z,49.7514
2024-03-26T09:43:00.167Z,48.8739
2024-03-26T09:44:03.050Z,49.6379
2024-03-26T09:45:06.857Z,48.8659
2024-03-26T09:46:06.659Z,51.6714
2024-03-26T09:47:09.377Z,52.1252
2024-03-26T09:48:12.096Z,52.5798
2024-03-26T09:49:14.830Z,52.1456
2024-03-26T09:50:17.628Z,49.8076
2024-03-26T09:51:20.571Z,50.2892
2024-03-26T09:52:23.331Z,49.2229
2024-03-26T09:53:26.068Z,48.7895
2024-03-26T09:54:28.996Z,48.2481
2024-03-26T09:55:31.805Z,49.8739
2024-03-26T09:56:34.528Z,48.2678
2024-03-26T09:57:37.274Z,48.5636
2024-03-26T09:58:40.289Z,48.9954
2024-03-26T09:59:43.093Z,50.5935
2024-03-26T10:00:45.834Z,48.3829
2024-03-26T10:01:48.548Z,48.7861
2024-03-26T10:02:51.454Z,48.4510
2024-03-26T10:03:54.509Z,48.2909
2024-03-26T10:04:57.244Z,49.0480
2024-03-26T10:06:00.097Z,48.6154
2024-03-26T10:07:02.982Z,51.7696
2024-03-26T10:08:05.715Z,51.5132
2024-03-26T10:09:08.735Z,51.3817
2024-03-26T10:10:11.488Z,52.4605
2024-03-26T10:11:14.273Z,51.7289
2024-03-26T10:12:17.243Z,52.9013
2024-03-26T10:13:20.003Z,51.6387
2024-03-26T10:14:22.771Z,51.1935
2024-03-26T10:15:25.700Z,50.2033
2024-03-26T10:16:28.426Z,51.3177
2024-03-26T10:17:33.250Z,52.5132
2024-03-26T10:18:32.854Z,50.5534
2024-03-26T10:19:35.608Z,51.7780
2024-03-26T10:20:38.412Z,51.3692
2024-03-26T10:21:41.373Z,50.4869
2024-03-26T10:22:44.108Z,51.1823
2024-03-26T10:23:46.901Z,52.2335
2024-03-26T10:24:49.858Z,50.1610
2024-03-26T10:25:52.572Z,51.6637
2024-03-26T10:26:55.381Z,50.9724
2024-03-26T10:27:58.097Z,50.6799
2024-03-26T10:29:01.082Z,50.2639
2024-03-26T10:30:03.886Z,50.2927
2024-03-26T10:31:06.653Z,50.3341
2024-03-26T10:32:09.629Z,52.6359
2024-03-26T10:33:12.560Z,52.7853
2024-03-26T10:34:15.245Z,52.4199
2024-03-26T10:35:18.021Z,51.7769
2024-03-26T10:36:20.815Z,52.8857
2024-03-26T10:37:23.548Z,52.8227
2024-03-26T10:38:26.487Z,53.2248
2024-03-26T10:39:29.285Z,53.5011
2024-03-26T10:40:32.021Z,53.6790
2024-03-26T10:41:34.935Z,51.5517
2024-03-26T10:42:37.968Z,53.3131
2024-03-26T10:43:40.695Z,51.5357
2024-03-26T10:44:43.704Z,51.3928
2024-03-26T10:45:59.960Z,51.3556
2024-03-26T10:46:49.399Z,50.5331
2024-03-26T10:47:48.938Z,50.6450
2024-03-26T10:48:57.495Z,51.9117
2024-03-26T10:49:53.414Z,52.5587
2024-03-26T10:50:56.625Z,52.6841
2024-03-26T10:51:59.377Z,50.7992
2024-03-26T10:53:02.296Z,53.2570
2024-03-26T10:54:05.103Z,53.7826
2024-03-26T10:55:07.830Z,53.2972
2024-03-26T10:56:10.714Z,52.0417
2024-03-26T10:57:13.478Z,52.1556
2024-03-26T10:58:16.201Z,52.2376
2024-03-26T10:59:18.979Z,51.4376
2024-03-26T11:00:21.946Z,51.5769
2024-03-26T11:01:24.666Z,50.6404
2024-03-26T11:02:27.396Z,50.3958
2024-03-26T11:03:30.106Z,49.7921
2024-03-26T11:04:32.831Z,50.3059
2024-03-26T11:05:35.861Z,48.4081
2024-03-26T11:06:38.606Z,44.7479
2024-03-26T11:07:41.577Z,43.7213
2024-03-26T11:08:44.360Z,42.9919
2024-03-26T11:09:47.115Z,41.5393
2024-03-26T11:10:52.500Z,42.2944
2024-03-26T11:11:52.099Z,42.1565
2024-03-26T11:12:54.890Z,42.5822
2024-03-26T11:13:57.639Z,41.0154
2024-03-26T11:15:00.454Z,42.9188
2024-03-26T11:16:03.799Z,40.5875
2024-03-26T11:17:04.044Z,39.5282
2024-03-26T11:18:06.936Z,39.3907
2024-03-26T11:19:09.727Z,38.9609
2024-03-26T11:20:12.668Z,35.8797
2024-03-26T11:21:15.396Z,35.2152
2024-03-26T11:22:18.459Z,36.4158
2024-03-26T11:23:21.258Z,35.9252
2024-03-26T11:24:23.998Z,36.2459
2024-03-26T11:25:26.788Z,36.0457
2024-03-26T11:26:29.657Z,34.4255
2024-03-26T11:27:32.676Z,34.9132
2024-03-26T11:28:35.391Z,36.2603
2024-03-26T11:29:38.302Z,35.9553
2024-03-26T11:30:41.157Z,36.2246
2024-03-26T11:31:43.956Z,35.0028
2024-03-26T11:32:46.707Z,32.6285
2024-03-26T11:33:49.631Z,34.0041
2024-03-26T11:34:52.459Z,37.5502
2024-03-26T11:35:55.202Z,37.9065
2024-03-26T11:36:58.108Z,36.8964
2024-03-26T11:38:03.485Z,35.3380
2024-03-26T11:39:03.087Z,33.0072
2024-03-26T11:40:06.024Z,33.9570
2024-03-26T11:41:08.984Z,33.0299
2024-03-26T11:42:11.867Z,31.9059
2024-03-26T11:43:14.762Z,31.5149
2024-03-26T11:44:17.554Z,31.3010
2024-03-26T11:45:20.518Z,30.5576
2024-03-26T11:46:23.267Z,31.9224
2024-03-26T11:47:26.101Z,32.0359
2024-03-26T11:48:28.844Z,34.3849
2024-03-26T11:49:31.762Z,35.4358
2024-03-26T11:50:34.536Z,35.5634
2024-03-26T11:51:37.869Z,33.2457
2024-03-26T11:52:38.301Z,33.3357
2024-03-26T11:53:41.310Z,32.0301
2024-03-26T11:54:44.118Z,33.7945
2024-03-26T11:55:47.085Z,36.2169
2024-03-26T11:56:49.848Z,34.6122
2024-03-26T11:57:52.625Z,34.6559
2024-03-26T11:58:55.578Z,33.4728
2024-03-26T11:59:58.326Z,34.2935
2024-03-26T12:01:01.099Z,32.6335
2024-03-26T12:02:03.839Z,33.3577
2024-03-26T12:03:06.796Z,33.3270
2024-03-26T12:04:09.524Z,34.1701
2024-03-26T12:05:12.527Z,34.5995
2024-03-26T12:06:15.245Z,37.7821
2024-03-26T12:07:17.996Z,35.2850
2024-03-26T12:08:20.749Z,33.8626
2024-03-26T12:09:23.545Z,34.7071
2024-03-26T12:10:26.317Z,35.0884
2024-03-26T12:11:29.191Z,32.4447
2024-03-26T12:12:31.879Z,36.9681
2024-03-26T12:13:34.607Z,35.8205
2024-03-26T12:14:37.345Z,33.7046
2024-03-26T12:15:40.374Z,29.8701
2024-03-26T12:16:43.331Z,29.4517
2024-03-26T12:17:46.230Z,29.2723
2024-03-26T12:18:48.969Z,29.2663
2024-03-26T12:19:51.882Z,31.7411
2024-03-26T12:20:54.946Z,30.3916
2024-03-26T12:21:57.693Z,31.3797
2024-03-26T12:23:00.492Z,30.7516
2024-03-26T12:24:03.272Z,31.2957
2024-03-26T12:25:06.166Z,30.0871
2024-03-26T12:26:08.910Z,31.6048
2024-03-26T12:27:11.844Z,34.9546
2024-03-26T12:28:14.649Z,35.2124
2024-03-26T12:29:17.399Z,32.1408
2024-03-26T12:30:20.404Z,30.0616
2024-03-26T12:31:23.325Z,28.5500
2024-03-26T12:32:26.124Z,30.3908
2024-03-26T12:33:28.949Z,28.8010
2024-03-26T12:34:31.871Z,27.7211
2024-03-26T12:35:34.624Z,29.0234
2024-03-26T12:36:37.460Z,28.5746
2024-03-26T12:37:40.390Z,29.5129
2024-03-26T12:38:43.128Z,29.7433